createdAt,value
2018-01-13T00:02:12.912Z,1.77
2018-01-13T00:04:40.498Z,1.83
2018-01-13T00:07:08.146Z,1.77
2018-01-13T00:09:35.722Z,1.63
2018-01-13T00:12:03.281Z,1.57
2018-01-13T00:14:30.881Z,1.90
2018-01-13T00:16:58.494Z,1.73
2018-01-13T00:19:26.164Z,1.63
2018-01-13T00:21:53.744Z,1.60
2018-01-13T00:24:22.052Z,1.70
2018-01-13T00:26:49.696Z,1.27
2018-01-13T00:29:17.312Z,1.80
2018-01-13T00:31:44.858Z,1.43
2018-01-13T00:34:12.476Z,1.30
2018-01-13T00:36:40.043Z,1.87
2018-01-13T00:39:07.586Z,1.30
2018-01-13T00:41:36.018Z,1.20
2018-01-13T00:44:03.586Z,1.27
2018-01-13T00:46:31.196Z,2.10
2018-01-13T00:48:58.784Z,2.40
2018-01-13T00:51:26.795Z,1.90
2018-01-13T00:53:54.389Z,2.00
2018-01-13T00:56:21.950Z,1.60
2018-01-13T00:58:49.526Z,1.60
2018-01-13T01:01:17.182Z,1.93
2018-01-13T01:03:44.799Z,1.73
2018-01-13T01:06:12.396Z,1.10
2018-01-13T01:08:39.964Z,1.60
2018-01-13T01:11:07.560Z,2.00
2018-01-13T01:13:36.828Z,1.00
2018-01-13T01:16:04.407Z,1.77
2018-01-13T01:18:31.970Z,1.80
2018-01-13T01:20:59.586Z,1.60
2018-01-13T01:23:27.922Z,1.87
2018-01-13T01:25:56.753Z,1.40
2018-01-13T01:28:24.354Z,1.57
2018-01-13T01:30:51.920Z,1.80
2018-01-13T01:33:19.498Z,2.07
2018-01-13T01:35:47.098Z,1.13
2018-01-13T01:38:15.424Z,1.47
2018-01-13T01:40:43.090Z,1.97
2018-01-13T01:43:10.645Z,1.20
2018-01-13T01:45:38.236Z,1.13
2018-01-13T01:48:05.790Z,1.50
2018-01-13T01:50:34.145Z,1.80
2018-01-13T01:53:01.904Z,1.47
2018-01-13T01:55:30.306Z,1.93
2018-01-13T01:57:57.938Z,1.57
2018-01-13T02:00:25.500Z,1.73
2018-01-13T02:02:53.098Z,1.63
2018-01-13T02:05:21.848Z,1.43
2018-01-13T02:07:49.428Z,2.03
2018-01-13T02:10:17.032Z,1.40
2018-01-13T02:12:44.690Z,1.63
2018-01-13T02:15:12.314Z,1.20
2018-01-13T02:17:39.904Z,2.17
2018-01-13T02:20:07.478Z,1.20
2018-01-13T02:22:35.032Z,1.70
2018-01-13T02:25:03.410Z,1.70
2018-01-13T02:27:30.993Z,1.70
2018-01-13T02:29:58.604Z,1.53
2018-01-13T02:32:27.083Z,1.30
2018-01-13T02:34:55.507Z,1.40
2018-01-13T02:37:23.584Z,1.77
2018-01-13T02:39:51.155Z,1.50
2018-01-13T02:42:18.763Z,1.40
2018-01-13T02:44:47.309Z,1.67
2018-01-13T02:47:15.925Z,1.50
2018-01-13T02:49:44.269Z,1.33
2018-01-13T02:52:11.858Z,1.60
2018-01-13T02:54:40.314Z,1.40
2018-01-13T02:57:07.921Z,1.47
2018-01-13T02:59:35.485Z,1.47
2018-01-13T03:02:03.050Z,1.43
2018-01-13T03:04:30.690Z,1.50
2018-01-13T03:06:59.186Z,1.57
2018-01-13T03:09:26.774Z,1.60
2018-01-13T03:11:54.322Z,1.20
2018-01-13T03:14:21.962Z,1.40
2018-01-13T03:16:49.640Z,1.30
2018-01-13T03:19:17.314Z,1.90
2018-01-13T03:21:45.784Z,1.20
2018-01-13T03:24:13.312Z,1.20
2018-01-13T03:26:41.660Z,1.40
2018-01-13T03:29:09.214Z,1.40
2018-01-13T03:31:36.926Z,1.10
2018-01-13T03:34:05.253Z,1.13
2018-01-13T03:36:32.829Z,1.00
2018-01-13T03:39:01.257Z,1.03
2018-01-13T03:41:28.833Z,1.10
2018-01-13T03:43:56.437Z,1.70
2018-01-13T03:46:24.002Z,1.40
2018-01-13T03:48:51.575Z,1.17
2018-01-13T03:51:20.827Z,0.93
2018-01-13T03:53:48.387Z,1.80
2018-01-13T03:56:16.038Z,1.37
2018-01-13T03:58:43.762Z,1.83
2018-01-13T04:01:12.101Z,1.60
2018-01-13T04:03:40.092Z,1.30
2018-01-13T04:06:09.310Z,1.43
2018-01-13T04:08:37.679Z,1.20
2018-01-13T04:11:06.033Z,1.50
2018-01-13T04:13:33.685Z,1.50
2018-01-13T04:16:01.243Z,1.37
2018-01-13T04:18:28.820Z,1.00
2018-01-13T04:20:56.417Z,1.20
2018-01-13T04:23:24.029Z,1.33
2018-01-13T04:25:51.955Z,1.17
2018-01-13T04:28:20.806Z,1.13
2018-01-13T04:30:48.379Z,1.60
2018-01-13T04:33:16.874Z,1.27
2018-01-13T04:35:44.450Z,1.57
2018-01-13T04:38:12.035Z,0.80
2018-01-13T04:40:39.685Z,1.10
2018-01-13T04:43:07.278Z,1.23
2018-01-13T04:45:34.866Z,1.50
2018-01-13T04:48:03.217Z,1.73
2018-01-13T04:50:30.791Z,1.30
2018-01-13T04:52:59.184Z,1.30
2018-01-13T04:55:27.581Z,1.30
2018-01-13T04:57:55.206Z,1.50
2018-01-13T05:00:23.554Z,1.67
2018-01-13T05:02:51.178Z,1.40
2018-01-13T05:05:18.763Z,2.00
2018-01-13T05:07:46.321Z,0.93
2018-01-13T05:10:13.895Z,1.50
2018-01-13T05:12:41.465Z,1.57
2018-01-13T05:15:09.062Z,1.13
2018-01-13T05:17:37.373Z,1.23
2018-01-13T05:20:05.129Z,1.13
2018-01-13T05:22:32.745Z,1.40
2018-01-13T05:25:01.127Z,1.40
2018-01-13T05:27:29.495Z,1.60
2018-01-13T05:29:57.206Z,1.20
2018-01-13T05:32:24.881Z,1.50
2018-01-13T05:34:52.470Z,1.20
2018-01-13T05:37:20.023Z,1.43
2018-01-13T05:39:47.617Z,1.20
2018-01-13T05:42:15.935Z,1.00
2018-01-13T05:44:43.533Z,1.20
2018-01-13T05:47:11.217Z,1.50
2018-01-13T05:49:39.567Z,1.43
2018-01-13T05:52:07.135Z,0.83
2018-01-13T05:54:34.747Z,1.60
2018-01-13T05:57:02.277Z,1.10
2018-01-13T05:59:30.589Z,1.73
2018-01-13T06:01:58.201Z,1.30
2018-01-13T06:04:26.647Z,1.40
2018-01-13T06:06:54.223Z,1.67
2018-01-13T06:09:22.753Z,1.13
2018-01-13T06:11:50.323Z,1.47
2018-01-13T06:14:17.923Z,2.17
2018-01-13T06:16:46.367Z,1.27
2018-01-13T06:19:14.135Z,1.60
2018-01-13T06:21:41.705Z,1.43
2018-01-13T06:24:09.337Z,1.30
2018-01-13T06:26:36.953Z,1.90
2018-01-13T06:29:04.534Z,1.37
2018-01-13T06:31:32.873Z,1.30
2018-01-13T06:34:00.465Z,1.67
2018-01-13T06:36:28.171Z,1.43
2018-01-13T06:38:55.817Z,1.40
2018-01-13T06:41:23.677Z,1.53
2018-01-13T06:43:51.235Z,1.27
2018-01-13T06:46:20.024Z,1.33
2018-01-13T06:48:47.607Z,1.40
2018-01-13T06:51:15.283Z,1.57
2018-01-13T06:53:42.946Z,1.90
2018-01-13T06:56:10.632Z,1.60
2018-01-13T06:58:38.172Z,1.70
2018-01-13T07:01:05.744Z,2.03
2018-01-13T07:03:33.286Z,1.23
2018-01-13T07:06:00.868Z,1.00
2018-01-13T07:08:29.926Z,1.57
2018-01-13T07:10:57.532Z,1.87
2018-01-13T07:13:25.213Z,1.70
2018-01-13T07:15:53.572Z,1.27
2018-01-13T07:18:21.210Z,2.37
2018-01-13T07:20:48.754Z,2.30
2018-01-13T07:23:16.400Z,1.83
2018-01-13T07:25:43.946Z,2.63
2018-01-13T07:28:12.550Z,2.47
2018-01-13T07:30:40.228Z,2.40
2018-01-13T07:33:07.851Z,5.37
2018-01-13T07:35:35.425Z,4.10
2018-01-13T07:38:02.991Z,3.20
2018-01-13T07:40:30.578Z,2.83
2018-01-13T07:42:58.261Z,3.23
2018-01-13T07:45:25.893Z,2.90
2018-01-13T07:47:53.510Z,2.87
2018-01-13T07:50:21.894Z,2.60
2018-01-13T07:52:49.573Z,4.33
2018-01-13T07:55:17.156Z,2.50
2018-01-13T07:57:44.795Z,2.63
2018-01-13T08:00:12.376Z,3.07
2018-01-13T08:02:39.946Z,2.60
2018-01-13T08:05:07.528Z,3.20
2018-01-13T08:07:35.236Z,3.60
2018-01-13T08:10:02.818Z,2.80
2018-01-13T08:12:30.384Z,4.40
2018-01-13T08:14:57.949Z,3.23
2018-01-13T08:17:25.536Z,3.53
2018-01-13T08:19:53.118Z,3.93
2018-01-13T08:22:20.694Z,4.10
2018-01-13T08:24:49.096Z,3.60
2018-01-13T08:27:17.544Z,3.70
2018-01-13T08:29:45.138Z,4.70
2018-01-13T08:32:12.980Z,3.07
2018-01-13T08:34:40.694Z,3.93
2018-01-13T08:37:08.330Z,4.60
2018-01-13T08:39:36.767Z,3.77
2018-01-13T08:42:04.756Z,3.80
2018-01-13T08:44:32.419Z,4.10
2018-01-13T08:47:00.078Z,4.43
2018-01-13T08:49:27.678Z,3.63
2018-01-13T08:51:55.253Z,3.60
2018-01-13T08:54:22.874Z,4.87
2018-01-13T08:56:50.608Z,4.17
2018-01-13T08:59:18.954Z,4.20
2018-01-13T09:01:47.919Z,4.23
2018-01-13T09:04:15.480Z,5.07
2018-01-13T09:06:43.088Z,4.03
2018-01-13T09:09:11.780Z,5.00
2018-01-13T09:11:39.412Z,3.37
2018-01-13T09:14:06.954Z,4.40
2018-01-13T09:16:35.366Z,4.60
2018-01-13T09:19:04.455Z,3.50
2018-01-13T09:21:32.886Z,3.20
2018-01-13T09:24:01.204Z,3.73
2018-01-13T09:26:29.632Z,3.23
2018-01-13T09:28:57.236Z,4.00
2018-01-13T09:31:24.826Z,4.30
2018-01-13T09:33:53.196Z,3.70
2018-01-13T09:36:21.575Z,3.70
2018-01-13T09:38:49.894Z,4.70
2018-01-13T09:41:17.590Z,3.40
2018-01-13T09:43:45.276Z,3.77
2018-01-13T09:46:13.652Z,3.17
2018-01-13T09:48:41.607Z,4.40
2018-01-13T09:51:09.393Z,3.97
2018-01-13T09:53:37.957Z,5.70
2018-01-13T09:56:06.544Z,4.80
2018-01-13T09:58:35.657Z,4.47
2018-01-13T10:01:04.047Z,4.80
2018-01-13T10:03:31.618Z,6.47
2018-01-13T10:06:00.057Z,5.63
2018-01-13T10:08:27.722Z,5.00
2018-01-13T10:10:55.508Z,4.70
2018-01-13T10:13:23.837Z,4.63
2018-01-13T10:15:51.455Z,4.60
2018-01-13T10:18:19.030Z,5.13
2018-01-13T10:20:46.586Z,4.83
2018-01-13T10:23:16.408Z,5.40
2018-01-13T10:25:43.960Z,6.00
2018-01-13T10:28:11.723Z,5.80
2018-01-13T10:30:39.385Z,5.67
2018-01-13T10:33:07.150Z,6.37
2018-01-13T10:35:36.172Z,5.80
2018-01-13T10:38:03.713Z,5.30
2018-01-13T10:40:31.288Z,4.60
2018-01-13T10:42:58.910Z,5.27
2018-01-13T10:45:26.506Z,4.60
2018-01-13T10:47:54.864Z,5.30
2018-01-13T10:50:22.423Z,5.83
2018-01-13T10:52:50.054Z,5.17
2018-01-13T10:55:18.467Z,4.67
2018-01-13T10:57:46.507Z,4.13
2018-01-13T11:00:14.875Z,4.83
2018-01-13T11:02:43.213Z,3.63
2018-01-13T11:05:10.799Z,4.50
2018-01-13T11:07:38.405Z,4.80
2018-01-13T11:10:05.980Z,4.03
2018-01-13T11:12:33.519Z,4.20
2018-01-13T11:15:01.141Z,4.20
2018-01-13T11:17:30.679Z,4.07
2018-01-13T11:19:58.285Z,4.40
2018-01-13T11:22:25.927Z,5.40
2018-01-13T11:24:53.506Z,4.53
2018-01-13T11:27:21.107Z,4.27
2018-01-13T11:29:49.601Z,3.70
2018-01-13T11:32:17.202Z,4.30
2018-01-13T11:34:44.839Z,3.50
2018-01-13T11:37:12.421Z,4.10
2018-01-13T11:39:40.185Z,3.53
2018-01-13T11:42:07.793Z,3.83
2018-01-13T11:44:36.147Z,3.67
2018-01-13T11:47:03.779Z,3.17
2018-01-13T11:49:31.400Z,3.23
2018-01-13T11:51:59.777Z,4.10
2018-01-13T11:54:27.623Z,3.83
2018-01-13T11:56:55.253Z,3.40
2018-01-13T11:59:22.913Z,3.30
2018-01-13T12:01:50.561Z,2.70
2018-01-13T12:04:18.894Z,3.60
2018-01-13T12:06:47.259Z,3.73
2018-01-13T12:09:14.857Z,2.63
2018-01-13T12:11:42.628Z,2.50
2018-01-13T12:14:11.112Z,3.00
2018-01-13T12:16:38.657Z,2.80
2018-01-13T12:19:06.981Z,3.20
2018-01-13T12:21:34.532Z,3.30
2018-01-13T12:24:02.109Z,3.10
2018-01-13T12:26:29.824Z,3.90
2018-01-13T12:28:57.443Z,2.70
2018-01-13T12:31:25.068Z,2.80
2018-01-13T12:33:53.322Z,2.93
2018-01-13T12:36:20.907Z,2.80
2018-01-13T12:38:48.447Z,2.57
2018-01-13T12:41:16.365Z,2.87
2018-01-13T12:43:43.951Z,3.07
2018-01-13T12:46:11.640Z,2.53
2018-01-13T12:48:39.307Z,2.80
2018-01-13T12:51:06.849Z,3.90
2018-01-13T12:53:34.436Z,2.90
2018-01-13T12:56:01.964Z,2.50
2018-01-13T12:58:29.528Z,2.63
2018-01-13T13:00:57.982Z,2.30
2018-01-13T13:03:29.914Z,3.00
2018-01-13T13:06:02.686Z,2.10
2018-01-13T13:08:32.485Z,2.07
2018-01-13T13:11:03.247Z,2.10
2018-01-13T13:13:34.147Z,2.73
2018-01-13T13:16:09.046Z,2.53
2018-01-13T13:18:38.143Z,2.63
2018-01-13T13:21:06.556Z,1.80
2018-01-13T13:23:34.188Z,3.53
2018-01-13T13:26:02.530Z,2.70
2018-01-13T13:28:30.095Z,2.93
2018-01-13T13:30:57.689Z,2.60
2018-01-13T13:33:25.276Z,3.30
2018-01-13T13:35:52.842Z,2.80
2018-01-13T13:38:20.597Z,2.60
2018-01-13T13:40:48.332Z,3.37
2018-01-13T13:43:15.918Z,3.40
2018-01-13T13:45:43.670Z,3.40
2018-01-13T13:48:12.013Z,3.00
2018-01-13T13:50:39.556Z,4.10
2018-01-13T13:53:09.710Z,3.50
2018-01-13T13:55:38.008Z,3.67
2018-01-13T13:58:05.837Z,3.83
2018-01-13T14:00:33.566Z,3.80
2018-01-13T14:03:01.618Z,3.40
2018-01-13T14:05:29.432Z,3.60
2018-01-13T14:07:58.936Z,3.77
2018-01-13T14:10:26.502Z,3.03
2018-01-13T14:12:54.104Z,4.10
2018-01-13T14:15:21.711Z,3.90
2018-01-13T14:17:49.269Z,4.07
2018-01-13T14:20:17.908Z,3.87
2018-01-13T14:22:46.196Z,3.37
2018-01-13T14:25:15.353Z,3.80
2018-01-13T14:27:43.657Z,3.57
2018-01-13T14:30:11.287Z,4.20
2018-01-13T14:32:39.605Z,4.13
2018-01-13T14:35:07.236Z,3.47
2018-01-13T14:37:35.300Z,3.70
2018-01-13T14:40:03.638Z,3.40
2018-01-13T14:42:31.171Z,4.60
2018-01-13T14:44:58.730Z,4.03
2018-01-13T14:47:26.284Z,4.00
2018-01-13T14:49:53.876Z,3.63
2018-01-13T14:52:21.538Z,3.60
2018-01-13T14:54:49.059Z,3.87
2018-01-13T14:57:17.057Z,3.27
2018-01-13T14:59:44.691Z,4.10
2018-01-13T15:02:12.791Z,4.20
2018-01-13T15:04:40.332Z,3.77
2018-01-13T15:07:07.901Z,3.70
2018-01-13T15:09:35.395Z,4.17
2018-01-13T15:12:03.879Z,4.90
2018-01-13T15:14:31.616Z,3.80
2018-01-13T15:16:59.109Z,3.57
2018-01-13T15:19:26.965Z,3.20
2018-01-13T15:21:55.207Z,4.40
2018-01-13T15:24:22.803Z,3.23
2018-01-13T15:26:51.331Z,3.30
2018-01-13T15:29:19.107Z,3.57
2018-01-13T15:31:46.668Z,3.50
2018-01-13T15:34:14.213Z,2.87
2018-01-13T15:36:41.788Z,4.60
2018-01-13T15:39:09.787Z,4.33
2018-01-13T15:41:37.347Z,3.70
2018-01-13T15:44:04.861Z,3.60
2018-01-13T15:46:32.411Z,4.37
2018-01-13T15:48:59.973Z,3.17
2018-01-13T15:51:27.501Z,3.67
2018-01-13T15:53:55.840Z,3.27
2018-01-13T15:56:23.388Z,3.90
2018-01-13T15:58:51.347Z,3.50
2018-01-13T16:01:20.009Z,3.80
2018-01-13T16:03:53.087Z,3.90
2018-01-13T16:06:23.454Z,3.80
2018-01-13T16:08:52.994Z,3.80
2018-01-13T16:11:22.528Z,4.30
2018-01-13T16:13:51.777Z,4.60
2018-01-13T16:16:28.031Z,5.10
2018-01-13T16:19:00.647Z,5.30
2018-01-13T16:21:29.781Z,4.90
2018-01-13T16:23:58.237Z,5.07
2018-01-13T16:26:28.670Z,5.27
2018-01-13T16:29:00.069Z,5.40
2018-01-13T16:31:30.631Z,6.47
2018-01-13T16:34:00.461Z,5.83
2018-01-13T16:36:33.710Z,6.60
2018-01-13T16:41:44.342Z,5.30
2018-01-13T16:44:16.665Z,4.20
2018-01-13T16:46:48.828Z,5.10
2018-01-13T16:49:16.955Z,5.30
2018-01-13T16:51:47.326Z,5.37
2018-01-13T16:54:17.285Z,5.37
2018-01-13T16:56:47.409Z,4.90
2018-01-13T16:59:21.524Z,5.67
2018-01-13T17:01:58.496Z,7.07
2018-01-13T17:04:27.675Z,153.03
2018-01-13T17:06:56.287Z,709.90
2018-01-13T17:09:27.305Z,999.90
2018-01-13T17:11:57.066Z,999.90
2018-01-13T17:14:33.581Z,884.87
2018-01-13T17:17:07.518Z,587.30
2018-01-13T17:19:37.113Z,381.63
2018-01-13T17:22:31.873Z,355.10
2018-01-13T17:25:04.464Z,308.60
2018-01-13T17:27:35.666Z,291.67
2018-01-13T17:30:06.200Z,304.43
2018-01-13T17:32:44.566Z,286.93
2018-01-13T17:35:14.685Z,269.70
2018-01-13T17:37:45.418Z,247.67
2018-01-13T17:40:16.029Z,269.23
2018-01-13T17:42:48.013Z,248.17
2018-01-13T17:45:21.763Z,210.07
2018-01-13T17:47:49.503Z,224.83
2018-01-13T17:50:20.539Z,217.73
2018-01-13T17:52:56.689Z,254.48
2018-01-13T17:55:26.260Z,253.70
2018-01-13T17:57:56.293Z,170.97
2018-01-13T18:00:25.235Z,93.67
2018-01-13T18:02:53.753Z,44.07
2018-01-13T18:05:24.848Z,26.20
2018-01-13T18:07:58.143Z,20.37
2018-01-13T18:10:28.801Z,21.10
2018-01-13T18:12:56.681Z,18.43
2018-01-13T18:15:24.705Z,17.33
2018-01-13T18:18:01.441Z,17.70
2018-01-13T18:20:31.897Z,15.63
2018-01-13T18:23:01.052Z,12.57
2018-01-13T18:25:31.469Z,15.17
2018-01-13T18:28:00.590Z,14.20
2018-01-13T18:30:28.434Z,19.93
2018-01-13T18:32:57.723Z,24.77
2018-01-13T18:35:26.979Z,30.23
2018-01-13T18:37:56.579Z,34.07
2018-01-13T18:40:24.271Z,35.37
2018-01-13T18:42:52.728Z,35.50
2018-01-13T18:45:24.330Z,35.97
2018-01-13T18:47:56.198Z,39.87
2018-01-13T18:50:24.730Z,36.70
2018-01-13T18:52:53.934Z,40.50
2018-01-13T18:55:22.795Z,39.70
2018-01-13T18:57:52.496Z,39.60
2018-01-13T19:00:22.354Z,39.27
2018-01-13T19:02:52.859Z,42.77
2018-01-13T19:05:21.571Z,40.20
2018-01-13T19:07:50.557Z,45.33
2018-01-13T19:10:19.159Z,38.47
2018-01-13T19:12:47.080Z,38.50
2018-01-13T19:15:16.540Z,39.63
2018-01-13T19:17:45.033Z,38.33
2018-01-13T19:20:14.345Z,41.77
2018-01-13T19:22:43.353Z,39.77
2018-01-13T19:25:16.857Z,40.07
2018-01-13T19:27:48.062Z,43.90
2018-01-13T19:30:16.058Z,45.37
2018-01-13T19:32:44.898Z,44.60
2018-01-13T19:35:19.430Z,43.47
2018-01-13T19:37:48.867Z,46.30
2018-01-13T19:40:16.764Z,46.67
2018-01-13T19:42:45.047Z,46.77
2018-01-13T19:45:22.252Z,45.50
2018-01-13T19:47:50.872Z,43.07
2018-01-13T19:50:20.336Z,44.40
2018-01-13T19:52:50.203Z,43.60
2018-01-13T19:55:18.960Z,41.47
2018-01-13T19:57:47.678Z,45.70
2018-01-13T20:00:16.642Z,42.27
2018-01-13T20:02:45.764Z,42.70
2018-01-13T20:05:16.460Z,43.07
2018-01-13T20:07:44.347Z,42.43
2018-01-13T20:10:15.490Z,39.90
2018-01-13T20:12:44.424Z,39.83
2018-01-13T20:15:15.509Z,40.83
2018-01-13T20:17:46.035Z,39.03
2018-01-13T20:22:50.901Z,40.20
2018-01-13T20:25:22.277Z,36.90
2018-01-13T20:30:23.421Z,34.23
2018-01-13T20:32:53.342Z,37.27
2018-01-13T20:35:30.552Z,35.50
2018-01-13T20:37:59.349Z,32.33
2018-01-13T20:40:28.517Z,33.50
2018-01-13T20:42:56.368Z,32.50
2018-01-13T20:45:25.457Z,29.87
2018-01-13T20:47:56.802Z,34.30
2018-01-13T20:50:25.454Z,32.67
2018-01-13T20:52:55.331Z,27.57
2018-01-13T20:55:28.262Z,32.93
2018-01-13T20:57:56.978Z,28.13
2018-01-13T21:00:25.361Z,28.30
2018-01-13T21:02:53.045Z,26.73
2018-01-13T21:05:22.426Z,26.40
2018-01-13T21:07:50.514Z,26.20
2018-01-13T21:10:21.320Z,27.20
2018-01-13T21:12:50.253Z,27.70
2018-01-13T21:15:27.868Z,28.10
2018-01-13T21:18:00.422Z,29.05
2018-01-13T21:20:29.491Z,25.03
2018-01-13T21:23:03.082Z,26.00
2018-01-13T21:25:34.093Z,23.63
2018-01-13T21:28:12.206Z,22.17
2018-01-13T21:30:44.300Z,20.90
2018-01-13T21:33:13.396Z,22.17
2018-01-13T21:35:43.365Z,23.60
2018-01-13T21:38:11.893Z,22.93
2018-01-13T21:40:40.370Z,19.60
2018-01-13T21:43:10.143Z,22.43
2018-01-13T21:45:38.514Z,19.17
2018-01-13T21:48:08.387Z,20.97
2018-01-13T21:50:36.407Z,20.57
2018-01-13T21:53:07.176Z,18.50
2018-01-13T21:55:37.729Z,19.27
2018-01-13T21:58:06.333Z,18.17
2018-01-13T22:00:39.303Z,18.47
2018-01-13T22:03:07.819Z,18.80
2018-01-13T22:05:41.212Z,19.20
2018-01-13T22:08:09.404Z,17.97
2018-01-13T22:10:40.037Z,16.83
2018-01-13T22:13:18.214Z,15.97
2018-01-13T22:15:47.755Z,16.47
2018-01-13T22:18:17.197Z,16.03
2018-01-13T22:20:47.183Z,15.03
2018-01-13T22:23:15.654Z,13.77
2018-01-13T22:25:47.225Z,15.93
2018-01-13T22:28:15.980Z,14.30
2018-01-13T22:30:46.686Z,14.83
2018-01-13T22:33:16.690Z,15.60
2018-01-13T22:35:46.685Z,13.90
2018-01-13T22:38:19.588Z,14.07
2018-01-13T22:40:50.961Z,12.77
2018-01-13T22:43:20.370Z,12.77
2018-01-13T22:45:48.717Z,13.67
2018-01-13T22:48:17.173Z,11.23
2018-01-13T22:50:48.355Z,12.00
2018-01-13T22:53:19.308Z,12.47
2018-01-13T22:55:48.928Z,12.47
2018-01-13T22:58:23.077Z,11.50
2018-01-13T23:00:58.264Z,11.50
2018-01-13T23:03:27.517Z,10.53
2018-01-13T23:05:55.457Z,11.90
2018-01-13T23:08:26.995Z,12.00
2018-01-13T23:11:00.547Z,11.70
2018-01-13T23:13:33.510Z,10.80
2018-01-13T23:16:02.116Z,10.37
2018-01-13T23:18:30.739Z,8.73
2018-01-13T23:21:01.691Z,10.40
2018-01-13T23:23:31.849Z,8.50
2018-01-13T23:26:01.333Z,10.73
2018-01-13T23:28:31.743Z,9.37
2018-01-13T23:30:59.454Z,9.87
2018-01-13T23:33:27.320Z,9.00
2018-01-13T23:35:55.223Z,8.27
2018-01-13T23:38:24.266Z,8.63
2018-01-13T23:40:53.122Z,7.90
2018-01-13T23:43:26.873Z,9.77
2018-01-13T23:45:59.410Z,9.70
2018-01-13T23:48:31.016Z,9.97
2018-01-13T23:51:02.543Z,7.67
2018-01-13T23:53:36.039Z,8.90
2018-01-13T23:56:05.295Z,8.03
2018-01-13T23:58:34.100Z,8.27
